Pagina principale
METAR-TAF:

METAR-TAF

Aeroporti :

Aeroporto di Harbin-Taiping

Harbin, Cina

latitudine: 45-45N, longitudine: 126-46E, altezza: 143 m

Osservazione

Il bollettino è stato emesso 36 minuti fa, alle 06:00 UTC
Vento 17 kt da ovest/nord-ovest con raffiche fino a 27 kt
Temperature 17°C
Umidità 17%
Pressione 1004 hPa
Visibilità 10 km o più
Nubi sparse ad un'altezza di 3300 ft

METAR: ZYHB 200600Z 29009G14MPS 9999 SCT033 17/M08 Q1004 NOSIG

Ora: 14:36 (06:36 UTC)

Previsione

Il bollettino è stato emesso 3 ore e 29 minuti fa, alle 03:07 UTC
Previsione valida dal 20 alle 06 UTC al 21 alle 06 UTC
Vento 16 kt da nord-ovest con raffiche fino a 31 kt
Visibilità: 4000 m
Nubi sparse ad un'altezza di 3000 ft
sabbia

TAF: ZYHB 200307Z 2006/2106 31008G16MPS 4000 SA SCT030 TX17/2006Z TNM01/21Z

Osservazioni e previsioni meteorologiche di più di 4000 aeroporti (messaggi METAR e TAF).

Le stazioni disponibili sono rappresentate dai dischi gialli e rossi sulla carta.

Puntare il mouse per vedere il nome della stazione.

Clicca sopra per visualizzare le osservazioni e previsioni meteorologiche.

Per cambiare la mappa : fare clic sui pulsanti verdi con una croce nera per ingrandire, il pulsante verde con un trattino per diminuire, o sulla freccia verde per le mappe adiacenti.


METAR-TAF: